Time,TemperatureF,DewpointF,PressureIn,WindDirection,WindDirectionDegrees,WindSpeedMPH,WindSpeedGustMPH,Humidity,HourlyPrecipIn,Conditions,Clouds,dailyrainin,SoftwareType,DateUTC
2013-05-27 00:01:00,51.0,20.0,-100.00,SSW,192,6.0,9.0,29,0.00,,,-99.99,,2013-05-27 06:01:00,
2013-05-27 00:11:00,51.0,20.0,-100.00,SSW,198,4.0,9.0,28,0.00,,,-99.99,,2013-05-27 06:11:00,
2013-05-27 00:21:00,51.0,19.0,-100.00,SW,219,6.0,11.0,28,0.00,,,-99.99,,2013-05-27 06:21:00,
2013-05-27 00:32:00,54.0,19.0,-100.00,SW,233,9.0,12.0,25,0.00,,,-99.99,,2013-05-27 06:32:00,
2013-05-27 00:42:00,55.0,19.0,-100.00,WSW,237,11.0,13.0,24,0.00,,,-99.99,,2013-05-27 06:42:00,
2013-05-27 00:52:00,54.0,19.0,-100.00,SW,232,12.0,13.0,25,0.00,,,-99.99,,2013-05-27 06:52:00,
2013-05-27 01:02:00,54.0,18.0,-100.00,SW,233,12.0,14.0,24,0.00,,,-99.99,,2013-05-27 07:02:00,
2013-05-27 01:11:00,55.0,18.0,-100.00,WSW,237,13.0,15.0,23,0.00,,,-99.99,,2013-05-27 07:11:00,
2013-05-27 01:21:00,55.0,18.0,-100.00,WSW,239,13.0,14.0,23,0.00,,,-99.99,,2013-05-27 07:21:00,
2013-05-27 01:32:00,54.0,18.0,-100.00,WSW,240,12.0,14.0,23,0.00,,,-99.99,,2013-05-27 07:32:00,
2013-05-27 01:41:00,54.0,17.0,-100.00,WSW,240,12.0,14.0,23,0.00,,,-99.99,,2013-05-27 07:41:00,
2013-05-27 01:52:00,55.0,17.0,-100.00,WSW,239,13.0,14.0,22,0.00,,,-99.99,,2013-05-27 07:52:00,
2013-05-27 02:02:00,53.0,17.0,-100.00,SW,227,12.0,14.0,23,0.00,,,-99.99,,2013-05-27 08:02:00,
2013-05-27 02:11:00,53.0,17.0,-100.00,SW,219,12.0,13.0,24,0.00,,,-99.99,,2013-05-27 08:11:00,
2013-05-27 02:22:00,51.0,17.0,-100.00,SW,216,12.0,14.0,26,0.00,,,-99.99,,2013-05-27 08:22:00,
2013-05-27 02:32:00,52.0,17.0,-100.00,SW,219,13.0,15.0,25,0.00,,,-99.99,,2013-05-27 08:32:00,
2013-05-27 02:42:00,51.0,18.0,-100.00,SW,222,14.0,15.0,26,0.00,,,-99.99,,2013-05-27 08:42:00,
2013-05-27 02:52:00,52.0,17.0,-100.00,SW,233,14.0,16.0,25,0.00,,,-99.99,,2013-05-27 08:52:00,
2013-05-27 03:02:00,53.0,18.0,-100.00,SW,236,13.0,15.0,25,0.00,,,-99.99,,2013-05-27 09:02:00,
2013-05-27 03:11:00,51.0,18.0,-100.00,SW,227,13.0,14.0,27,0.00,,,-99.99,,2013-05-27 09:11:00,
2013-05-27 03:21:00,52.0,18.0,-100.00,SW,230,15.0,16.0,26,0.00,,,-99.99,,2013-05-27 09:21:00,
2013-05-27 03:33:00,51.0,18.0,-100.00,SW,229,14.0,16.0,27,0.00,,,-99.99,,2013-05-27 09:33:00,
2013-05-27 03:42:00,52.0,18.0,-100.00,SW,227,14.0,16.0,26,0.00,,,-99.99,,2013-05-27 09:42:00,
2013-05-27 03:52:00,52.0,17.0,-100.00,SW,232,15.0,17.0,25,0.00,,,-99.99,,2013-05-27 09:52:00,
2013-05-27 04:02:00,52.0,18.0,-100.00,SW,232,15.0,17.0,25,0.00,,,-99.99,,2013-05-27 10:02:00,
2013-05-27 04:12:00,53.0,17.0,-100.00,SW,233,14.0,16.0,24,0.00,,,-99.99,,2013-05-27 10:12:00,
2013-05-27 04:22:00,53.0,17.0,-100.00,SW,232,15.0,17.0,23,0.00,,,-99.99,,2013-05-27 10:22:00,
2013-05-27 04:32:00,54.0,16.0,-100.00,SW,230,16.0,18.0,23,0.00,,,-99.99,,2013-05-27 10:32:00,
2013-05-27 04:42:00,54.0,16.0,-100.00,SW,232,16.0,18.0,23,0.00,,,-99.99,,2013-05-27 10:42:00,
2013-05-27 04:52:00,51.0,17.0,-100.00,SW,232,13.0,16.0,25,0.00,,,-99.99,,2013-05-27 10:52:00,
2013-05-27 05:02:00,51.0,16.0,-100.00,SW,229,12.0,14.0,24,0.00,,,-99.99,,2013-05-27 11:02:00,
2013-05-27 05:11:00,51.0,15.0,-100.00,SW,227,11.0,13.0,24,0.00,,,-99.99,,2013-05-27 11:11:00,
2013-05-27 05:22:00,50.0,15.0,-100.00,SW,230,12.0,14.0,24,0.00,,,-99.99,,2013-05-27 11:22:00,
2013-05-27 05:32:00,53.0,14.0,-100.00,SW,236,15.0,17.0,21,0.00,,,-99.99,,2013-05-27 11:32:00,
2013-05-27 05:42:00,54.0,14.0,-100.00,WSW,237,17.0,19.0,20,0.00,,,-99.99,,2013-05-27 11:42:00,
2013-05-27 05:52:00,52.0,15.0,-100.00,SW,232,17.0,20.0,23,0.00,,,-99.99,,2013-05-27 11:52:00,
2013-05-27 06:01:00,50.0,16.0,-100.00,SW,232,17.0,20.0,25,0.00,,,-99.99,,2013-05-27 12:01:00,
2013-05-27 06:11:00,51.0,15.0,-100.00,SW,234,17.0,20.0,24,0.00,,,-99.99,,2013-05-27 12:11:00,
2013-05-27 06:21:00,53.0,14.0,-100.00,WSW,237,17.0,19.0,21,0.00,,,-99.99,,2013-05-27 12:21:00,
2013-05-27 06:32:00,55.0,14.0,-100.00,WSW,239,18.0,22.0,19,0.00,,,-99.99,,2013-05-27 12:32:00,
2013-05-27 06:42:00,56.0,14.0,-100.00,SW,234,18.0,24.0,18,0.00,,,-99.99,,2013-05-27 12:42:00,
2013-05-27 06:52:00,57.0,14.0,-100.00,WSW,237,21.0,27.0,18,0.00,,,-99.99,,2013-05-27 12:52:00,
2013-05-27 07:01:00,58.0,15.0,-100.00,WSW,240,21.0,26.0,18,0.00,,,-99.99,,2013-05-27 13:01:00,
2013-05-27 07:11:00,59.0,13.0,-100.00,WSW,240,21.0,26.0,16,0.00,,,-99.99,,2013-05-27 13:11:00,
2013-05-27 07:21:00,60.0,13.0,-100.00,WSW,246,21.0,27.0,16,0.00,,,-99.99,,2013-05-27 13:21:00,
2013-05-27 07:32:00,60.0,14.0,-100.00,WSW,246,21.0,26.0,16,0.00,,,-99.99,,2013-05-27 13:32:00,
2013-05-27 07:41:00,61.0,15.0,-100.00,WSW,247,22.0,28.0,16,0.00,,,-99.99,,2013-05-27 13:41:00,
2013-05-27 07:52:00,62.0,15.0,-100.00,WSW,250,20.0,26.0,16,0.00,,,-99.99,,2013-05-27 13:52:00,
2013-05-27 08:01:00,62.0,14.0,-100.00,WSW,253,20.0,26.0,15,0.00,,,-99.99,,2013-05-27 14:01:00,
2013-05-27 08:11:00,63.0,15.0,-100.00,WSW,256,21.0,26.0,15,0.00,,,-99.99,,2013-05-27 14:11:00,
2013-05-27 08:21:00,62.0,15.0,-100.00,West,260,20.0,26.0,15,0.00,,,-99.99,,2013-05-27 14:21:00,
2013-05-27 08:32:00,62.0,15.0,-100.00,WSW,256,22.0,27.0,16,0.00,,,-99.99,,2013-05-27 14:32:00,
2013-05-27 08:42:00,60.0,16.0,-100.00,WSW,258,22.0,26.0,17,0.00,,,-99.99,,2013-05-27 14:42:00,
2013-05-27 08:51:00,60.0,17.0,-100.00,West,261,20.0,24.0,18,0.00,,,-99.99,,2013-05-27 14:51:00,
2013-05-27 09:01:00,60.0,17.0,-100.00,WSW,258,19.0,24.0,19,0.00,,,-99.99,,2013-05-27 15:01:00,
2013-05-27 09:11:00,60.0,17.0,-100.00,West,260,16.0,20.0,19,0.00,,,-99.99,,2013-05-27 15:11:00,
2013-05-27 09:21:00,61.0,18.0,-100.00,WSW,258,14.0,18.0,19,0.00,,,-99.99,,2013-05-27 15:21:00,
2013-05-27 09:33:00,61.0,19.0,-100.00,West,260,13.0,17.0,19,0.00,,,-99.99,,2013-05-27 15:33:00,
2013-05-27 09:43:00,63.0,19.0,-100.00,West,261,11.0,14.0,19,0.00,,,-99.99,,2013-05-27 15:43:00,
2013-05-27 09:53:00,64.0,16.0,-100.00,West,265,9.0,16.0,15,0.00,,,-99.99,,2013-05-27 15:53:00,
2013-05-27 10:03:00,64.0,16.0,-100.00,SW,226,6.0,10.0,15,0.00,,,-99.99,,2013-05-27 16:03:00,
2013-05-27 10:12:00,65.0,17.0,-100.00,SW,222,4.0,8.0,16,0.00,,,-99.99,,2013-05-27 16:12:00,
2013-05-27 10:23:00,66.0,17.0,-100.00,SW,222,1.0,5.0,15,0.00,,,-99.99,,2013-05-27 16:23:00,
2013-05-27 10:33:00,66.0,18.0,-100.00,SW,222,5.0,11.0,16,0.00,,,-99.99,,2013-05-27 16:33:00,
2013-05-27 10:42:00,67.0,17.0,-100.00,SW,222,6.0,11.0,15,0.00,,,-99.99,,2013-05-27 16:42:00,
2013-05-27 10:52:00,66.0,15.0,-100.00,SW,222,7.0,19.0,14,0.00,,,-99.99,,2013-05-27 16:52:00,
2013-05-27 11:02:00,66.0,16.0,-100.00,SW,222,9.0,18.0,14,0.00,,,-99.99,,2013-05-27 17:02:00,
2013-05-27 11:11:00,66.0,16.0,-100.00,SW,222,6.0,16.0,14,0.00,,,-99.99,,2013-05-27 17:11:00,
2013-05-27 11:22:00,65.0,16.0,-100.00,SW,222,11.0,16.0,14,0.00,,,-99.99,,2013-05-27 17:22:00,
2013-05-27 11:32:00,67.0,17.0,-100.00,SW,222,10.0,16.0,14,0.00,,,-99.99,,2013-05-27 17:32:00,
2013-05-27 11:43:00,66.0,17.0,-100.00,SW,222,11.0,16.0,15,0.00,,,-99.99,,2013-05-27 17:43:00,
2013-05-27 11:52:00,68.0,18.0,-100.00,SW,222,13.0,21.0,15,0.00,,,-99.99,,2013-05-27 17:52:00,
2013-05-27 12:02:00,67.0,17.0,-100.00,SW,222,19.0,29.0,14,0.00,,,-99.99,,2013-05-27 18:02:00,
2013-05-27 12:11:00,66.0,18.0,-100.00,SW,222,16.0,24.0,16,0.00,,,-99.99,,2013-05-27 18:11:00,
2013-05-27 12:22:00,66.0,17.0,-100.00,SW,222,16.0,28.0,15,0.00,,,-99.99,,2013-05-27 18:22:00,
2013-05-27 12:32:00,66.0,18.0,-100.00,SW,222,19.0,26.0,16,0.00,,,-99.99,,2013-05-27 18:32:00,
2013-05-27 12:42:00,66.0,17.0,-100.00,SW,222,19.0,29.0,15,0.00,,,-99.99,,2013-05-27 18:42:00,
2013-05-27 12:52:00,67.0,19.0,-100.00,SW,222,15.0,26.0,15,0.00,,,-99.99,,2013-05-27 18:52:00,
2013-05-27 13:01:00,66.0,22.0,-100.00,SW,222,14.0,26.0,18,0.00,,,-99.99,,2013-05-27 19:01:00,
2013-05-27 13:11:00,66.0,22.0,-100.00,SW,222,15.0,28.0,19,0.00,,,-99.99,,2013-05-27 19:11:00,
2013-05-27 13:21:00,67.0,23.0,-100.00,SW,222,16.0,21.0,19,0.00,,,-99.99,,2013-05-27 19:21:00,
2013-05-27 13:32:00,68.0,23.0,-100.00,SW,222,16.0,24.0,18,0.00,,,-99.99,,2013-05-27 19:32:00,
2013-05-27 13:42:00,66.0,24.0,-100.00,SW,222,16.0,25.0,21,0.00,,,-99.99,,2013-05-27 19:42:00,
2013-05-27 13:52:00,66.0,24.0,-100.00,SW,222,13.0,19.0,20,0.00,,,-99.99,,2013-05-27 19:52:00,
2013-05-27 14:01:00,66.0,21.0,-100.00,SW,222,15.0,25.0,17,0.00,,,-99.99,,2013-05-27 20:01:00,
2013-05-27 14:11:00,65.0,22.0,-100.00,SW,222,21.0,27.0,19,0.00,,,-99.99,,2013-05-27 20:11:00,
2013-05-27 14:22:00,65.0,24.0,-100.00,SW,222,22.0,29.0,21,0.00,,,-99.99,,2013-05-27 20:22:00,
2013-05-27 14:32:00,66.0,22.0,-100.00,SW,222,20.0,27.0,19,0.00,,,-99.99,,2013-05-27 20:32:00,
2013-05-27 14:42:00,66.0,23.0,-100.00,SW,222,15.0,20.0,20,0.00,,,-99.99,,2013-05-27 20:42:00,
2013-05-27 14:52:00,67.0,23.0,-100.00,SW,222,12.0,23.0,18,0.00,,,-99.99,,2013-05-27 20:52:00,
2013-05-27 15:01:00,66.0,22.0,-100.00,SW,222,11.0,18.0,19,0.00,,,-99.99,,2013-05-27 21:01:00,
2013-05-27 15:12:00,67.0,21.0,-100.00,SW,222,16.0,26.0,17,0.00,,,-99.99,,2013-05-27 21:12:00,
2013-05-27 15:21:00,67.0,22.0,-100.00,SW,222,11.0,19.0,18,0.00,,,-99.99,,2013-05-27 21:21:00,
2013-05-27 15:33:00,67.0,25.0,-100.00,SW,222,11.0,17.0,20,0.00,,,-99.99,,2013-05-27 21:33:00,
2013-05-27 15:43:00,68.0,20.0,-100.00,SW,222,19.0,30.0,16,0.00,,,-99.99,,2013-05-27 21:43:00,
2013-05-27 15:53:00,68.0,21.0,-100.00,SW,222,16.0,24.0,17,0.00,,,-99.99,,2013-05-27 21:53:00,
2013-05-27 16:02:00,66.0,26.0,-100.00,SW,222,18.0,28.0,22,0.00,,,-99.99,,2013-05-27 22:02:00,
2013-05-27 16:12:00,64.0,27.0,-100.00,SW,222,23.0,30.0,24,0.00,,,-99.99,,2013-05-27 22:12:00,
2013-05-27 16:22:00,67.0,24.0,-100.00,SW,222,19.0,26.0,20,0.00,,,-99.99,,2013-05-27 22:22:00,
2013-05-27 16:33:00,65.0,25.0,-100.00,SW,222,14.0,26.0,22,0.00,,,-99.99,,2013-05-27 22:33:00,
2013-05-27 16:42:00,64.0,24.0,-100.00,SW,222,11.0,19.0,21,0.00,,,-99.99,,2013-05-27 22:42:00,
2013-05-27 16:52:00,63.0,24.0,-100.00,SW,222,6.0,15.0,22,0.00,,,-99.99,,2013-05-27 22:52:00,
2013-05-27 17:02:00,63.0,27.0,-100.00,SW,222,14.0,19.0,26,0.00,,,-99.99,,2013-05-27 23:02:00,
2013-05-27 17:12:00,63.0,27.0,-100.00,SW,222,16.0,23.0,26,0.00,,,-99.99,,2013-05-27 23:12:00,
2013-05-27 17:22:00,61.0,29.0,-100.00,SW,222,25.0,35.0,30,0.00,,,-99.99,,2013-05-27 23:22:00,
2013-05-27 17:32:00,56.0,33.0,-100.00,SW,222,29.0,39.0,42,0.00,,,-99.99,,2013-05-27 23:32:00,
2013-05-27 17:42:00,59.0,30.0,-100.00,SW,222,17.0,24.0,33,0.00,,,-99.99,,2013-05-27 23:42:00,
2013-05-27 17:52:00,60.0,30.0,-100.00,SW,222,14.0,19.0,32,0.00,,,-99.99,,2013-05-27 23:52:00,
2013-05-27 18:01:00,62.0,30.0,-100.00,West,271,15.0,23.0,29,0.00,,,-99.99,,2013-05-28 00:01:00,
2013-05-27 18:11:00,62.0,29.0,-100.00,WNW,287,16.0,21.0,28,0.00,,,-99.99,,2013-05-28 00:11:00,
2013-05-27 18:21:00,62.0,29.0,-100.00,WNW,295,12.0,17.0,28,0.00,,,-99.99,,2013-05-28 00:21:00,
2013-05-27 18:31:00,63.0,27.0,-100.00,WNW,299,10.0,16.0,25,0.00,,,-99.99,,2013-05-28 00:31:00,
2013-05-27 18:41:00,64.0,26.0,-100.00,WNW,299,12.0,18.0,23,0.00,,,-99.99,,2013-05-28 00:41:00,
2013-05-27 18:52:00,64.0,27.0,-100.00,WNW,299,14.0,19.0,24,0.00,,,-99.99,,2013-05-28 00:52:00,
2013-05-27 19:01:00,64.0,24.0,-100.00,WNW,299,16.0,24.0,22,0.00,,,-99.99,,2013-05-28 01:01:00,
2013-05-27 19:11:00,64.0,24.0,-100.00,WNW,299,17.0,24.0,22,0.00,,,-99.99,,2013-05-28 01:11:00,
2013-05-27 19:21:00,64.0,23.0,-100.00,WNW,299,17.0,24.0,20,0.00,,,-99.99,,2013-05-28 01:21:00,
2013-05-27 19:32:00,64.0,21.0,-100.00,WNW,299,19.0,28.0,19,0.00,,,-99.99,,2013-05-28 01:32:00,
2013-05-27 19:41:00,63.0,21.0,-100.00,WNW,299,19.0,24.0,20,0.00,,,-99.99,,2013-05-28 01:41:00,
2013-05-27 19:52:00,63.0,22.0,-100.00,WNW,299,19.0,26.0,21,0.00,,,-99.99,,2013-05-28 01:52:00,
2013-05-27 20:02:00,62.0,24.0,-100.00,WNW,299,12.0,18.0,22,0.00,,,-99.99,,2013-05-28 02:02:00,
2013-05-27 20:11:00,62.0,24.0,-100.00,WNW,299,11.0,15.0,24,0.00,,,-99.99,,2013-05-28 02:11:00,
2013-05-27 20:21:00,60.0,25.0,-100.00,WNW,299,9.0,13.0,26,0.00,,,-99.99,,2013-05-28 02:21:00,
2013-05-27 20:32:00,58.0,27.0,-100.00,WNW,299,9.0,15.0,31,0.00,,,-99.99,,2013-05-28 02:32:00,
2013-05-27 20:42:00,56.0,28.0,-100.00,WNW,299,9.0,11.0,35,0.00,,,-99.99,,2013-05-28 02:42:00,
2013-05-27 20:51:00,54.0,29.0,-100.00,NW,319,9.0,11.0,37,0.00,,,-99.99,,2013-05-28 02:51:00,
2013-05-27 21:01:00,54.0,28.0,-100.00,NW,322,7.0,10.0,37,0.00,,,-99.99,,2013-05-28 03:01:00,
2013-05-27 21:11:00,54.0,27.0,-100.00,NW,305,7.0,11.0,35,0.00,,,-99.99,,2013-05-28 03:11:00,
2013-05-27 21:21:00,53.0,28.0,-100.00,NW,312,9.0,11.0,39,0.00,,,-99.99,,2013-05-28 03:21:00,
2013-05-27 21:33:00,52.0,28.0,-100.00,WNW,291,5.0,8.0,39,0.00,,,-99.99,,2013-05-28 03:33:00,
2013-05-27 21:43:00,51.0,28.0,-100.00,WNW,299,5.0,8.0,42,0.00,,,-99.99,,2013-05-28 03:43:00,
2013-05-27 21:53:00,49.0,29.0,-100.00,NW,308,5.0,7.0,47,0.00,,,-99.99,,2013-05-28 03:53:00,
2013-05-27 22:02:00,50.0,29.0,-100.00,WNW,299,4.0,6.0,45,0.00,,,-99.99,,2013-05-28 04:02:00,
2013-05-27 22:13:00,48.0,29.0,-100.00,NW,309,4.0,6.0,48,0.00,,,-99.99,,2013-05-28 04:13:00,
2013-05-27 22:22:00,48.0,29.0,-100.00,WNW,301,4.0,6.0,46,0.00,,,-99.99,,2013-05-28 04:22:00,
2013-05-27 22:33:00,47.0,29.0,-100.00,NW,306,6.0,8.0,48,0.00,,,-99.99,,2013-05-28 04:33:00,
2013-05-27 22:42:00,48.0,29.0,-100.00,WNW,302,7.0,9.0,47,0.00,,,-99.99,,2013-05-28 04:42:00,
2013-05-27 22:52:00,46.0,28.0,-100.00,WNW,299,7.0,9.0,48,0.00,,,-99.99,,2013-05-28 04:52:00,
2013-05-27 23:02:00,46.0,28.0,-100.00,WNW,295,7.0,9.0,50,0.00,,,-99.99,,2013-05-28 05:02:00,
2013-05-27 23:12:00,45.0,28.0,-100.00,WNW,294,7.0,9.0,50,0.00,,,-99.99,,2013-05-28 05:12:00,
2013-05-27 23:22:00,45.0,28.0,-100.00,WNW,298,6.0,8.0,51,0.00,,,-99.99,,2013-05-28 05:22:00,
2013-05-27 23:33:00,45.0,28.0,-100.00,NW,306,6.0,7.0,51,0.00,,,-99.99,,2013-05-28 05:33:00,
2013-05-27 23:42:00,43.0,27.0,-100.00,NW,308,6.0,8.0,51,0.00,,,-99.99,,2013-05-28 05:42:00,
2013-05-27 23:52:00,47.0,24.0,-100.00,WNW,287,9.0,12.0,42,0.00,,,-99.99,,2013-05-28 05:52:00,